Marsa Alam, Egypt
Current Conditions -  °F | °C
As of 4:00 AM on Saturday 20 Dec 2014 (Local Time) from HEMA Reporting Station
Clear Clear  
Wind Chill: 66°   Ceiling: Unl
Heat Index: 66°   Visibility: 6mi
Dew Point: 54°   Wind: 14mph
Humidity: 64%   Direction: 310°NW
Pressure: 30"   Gusts: NA
Location:  25.55°N, 34.58°E
Report Text: HEMA 200200Z 31012KT CAVOK 19/12 Q1016 NOSIG
Loading
Personal Weather Stations






























Interactive Weather Map New forecast layout! Learn more

10-Day Weather Forecast

Advertisements
Track Severe Weather on mobile